sensor_id;sensor_type;location;lat;lon;timestamp;pressure;altitude;pressure_sealevel;temperature;humidity
71764;BME280;59602;52.142;5.408;2022-09-09T00:00:13;100898.03;;;16.33;83.42
71764;BME280;59602;52.142;5.408;2022-09-09T00:02:50;100892.53;;;16.33;83.53
71764;BME280;59602;52.142;5.408;2022-09-09T00:05:31;100891.78;;;16.33;83.69
71764;BME280;59602;52.142;5.408;2022-09-09T00:08:02;100888.25;;;16.32;83.92
71764;BME280;59602;52.142;5.408;2022-09-09T00:10:34;100879.66;;;16.30;83.32
71764;BME280;59602;52.142;5.408;2022-09-09T00:13:15;100879.31;;;16.28;83.31
71764;BME280;59602;52.142;5.408;2022-09-09T00:15:54;100882.81;;;16.29;83.37
71764;BME280;59602;52.142;5.408;2022-09-09T00:18:31;100869.50;;;16.27;84.04
71764;BME280;59602;52.142;5.408;2022-09-09T00:21:08;100866.75;;;16.27;84.04
71764;BME280;59602;52.142;5.408;2022-09-09T00:23:40;100874.22;;;16.27;83.54
71764;BME280;59602;52.142;5.408;2022-09-09T00:28:52;100875.44;;;16.26;83.72
71764;BME280;59602;52.142;5.408;2022-09-09T00:31:28;100873.50;;;16.23;83.48
71764;BME280;59602;52.142;5.408;2022-09-09T00:33:59;100869.63;;;16.20;83.44
71764;BME280;59602;52.142;5.408;2022-09-09T00:36:31;100879.06;;;16.19;83.58
71764;BME280;59602;52.142;5.408;2022-09-09T00:39:01;100877.09;;;16.19;83.96
71764;BME280;59602;52.142;5.408;2022-09-09T00:44:31;100864.25;;;16.13;83.91
71764;BME280;59602;52.142;5.408;2022-09-09T00:47:12;100872.91;;;16.11;84.02
71764;BME280;59602;52.142;5.408;2022-09-09T00:52:30;100870.59;;;16.10;83.95
71764;BME280;59602;52.142;5.408;2022-09-09T00:55:16;100868.31;;;16.05;83.57
71764;BME280;59602;52.142;5.408;2022-09-09T00:57:51;100875.81;;;16.01;83.90
71764;BME280;59602;52.142;5.408;2022-09-09T01:00:27;100877.00;;;16.00;84.06
71764;BME280;59602;52.142;5.408;2022-09-09T01:08:03;100885.28;;;15.96;83.89
71764;BME280;59602;52.142;5.408;2022-09-09T01:10:51;100886.50;;;15.95;83.95
71764;BME280;59602;52.142;5.408;2022-09-09T01:13:24;100883.38;;;15.93;84.04
71764;BME280;59602;52.142;5.408;2022-09-09T01:15:52;100889.28;;;15.91;83.73
71764;BME280;59602;52.142;5.408;2022-09-09T01:18:28;100878.75;;;15.90;84.07
71764;BME280;59602;52.142;5.408;2022-09-09T01:26:41;100861.25;;;15.80;83.95
71764;BME280;59602;52.142;5.408;2022-09-09T01:29:11;100862.50;;;15.75;83.85
71764;BME280;59602;52.142;5.408;2022-09-09T01:31:40;100857.84;;;15.72;83.73
71764;BME280;59602;52.142;5.408;2022-09-09T01:34:12;100848.84;;;15.72;83.90
71764;BME280;59602;52.142;5.408;2022-09-09T01:36:45;100853.94;;;15.70;83.77
71764;BME280;59602;52.142;5.408;2022-09-09T01:39:13;100855.53;;;15.67;83.84
71764;BME280;59602;52.142;5.408;2022-09-09T01:41:40;100855.94;;;15.66;83.91
71764;BME280;59602;52.142;5.408;2022-09-09T01:44:08;100858.34;;;15.64;84.04
71764;BME280;59602;52.142;5.408;2022-09-09T01:46:35;100860.31;;;15.63;84.03
71764;BME280;59602;52.142;5.408;2022-09-09T01:49:03;100860.69;;;15.62;83.52
71764;BME280;59602;52.142;5.408;2022-09-09T01:51:31;100859.56;;;15.59;83.66
71764;BME280;59602;52.142;5.408;2022-09-09T01:53:57;100860.81;;;15.54;83.78
71764;BME280;59602;52.142;5.408;2022-09-09T01:59:07;100859.31;;;15.50;83.43
71764;BME280;59602;52.142;5.408;2022-09-09T02:02:07;100853.03;;;15.49;83.54
71764;BME280;59602;52.142;5.408;2022-09-09T02:04:41;100848.38;;;15.46;83.79
71764;BME280;59602;52.142;5.408;2022-09-09T02:09:50;100849.22;;;15.43;83.68
71764;BME280;59602;52.142;5.408;2022-09-09T02:12:21;100836.34;;;15.40;83.64
71764;BME280;59602;52.142;5.408;2022-09-09T02:14:55;100839.06;;;15.40;83.60
71764;BME280;59602;52.142;5.408;2022-09-09T02:17:27;100837.94;;;15.38;83.67
71764;BME280;59602;52.142;5.408;2022-09-09T02:20:03;100835.97;;;15.38;83.51
71764;BME280;59602;52.142;5.408;2022-09-09T02:22:32;100837.94;;;15.38;83.67
71764;BME280;59602;52.142;5.408;2022-09-09T02:25:03;100841.09;;;15.36;83.88
71764;BME280;59602;52.142;5.408;2022-09-09T02:27:31;100837.22;;;15.33;83.42
71764;BME280;59602;52.142;5.408;2022-09-09T02:29:59;100831.34;;;15.31;83.53
71764;BME280;59602;52.142;5.408;2022-09-09T02:32:29;100830.97;;;15.33;83.62
71764;BME280;59602;52.142;5.408;2022-09-09T02:35:01;100830.19;;;15.32;84.03
71764;BME280;59602;52.142;5.408;2022-09-09T02:37:35;100832.56;;;15.30;83.93
71764;BME280;59602;52.142;5.408;2022-09-09T02:40:04;100832.56;;;15.30;84.11
71764;BME280;59602;52.142;5.408;2022-09-09T02:42:32;100834.09;;;15.31;83.99
71764;BME280;59602;52.142;5.408;2022-09-09T02:44:59;100832.16;;;15.32;83.84
71764;BME280;59602;52.142;5.408;2022-09-09T02:47:33;100835.28;;;15.30;83.73
71764;BME280;59602;52.142;5.408;2022-09-09T02:50:15;100839.63;;;15.28;83.88
71764;BME280;59602;52.142;5.408;2022-09-09T02:55:32;100833.84;;;15.22;84.20
71764;BME280;59602;52.142;5.408;2022-09-09T02:58:07;100833.47;;;15.20;83.74
71764;BME280;59602;52.142;5.408;2022-09-09T03:00:35;100828.78;;;15.21;84.30
71764;BME280;59602;52.142;5.408;2022-09-09T03:03:03;100824.47;;;15.20;83.88
71764;BME280;59602;52.142;5.408;2022-09-09T03:05:30;100822.09;;;15.22;84.48
71764;BME280;59602;52.142;5.408;2022-09-09T03:07:57;100827.94;;;15.24;83.73
71764;BME280;59602;52.142;5.408;2022-09-09T03:10:23;100828.78;;;15.21;83.63
71764;BME280;59602;52.142;5.408;2022-09-09T03:12:50;100820.19;;;15.19;84.13
71764;BME280;59602;52.142;5.408;2022-09-09T03:15:17;100819.78;;;15.20;84.15
71764;BME280;59602;52.142;5.408;2022-09-09T03:17:44;100819.41;;;15.18;84.16
71764;BME280;59602;52.142;5.408;2022-09-09T03:20:11;100828.81;;;15.17;83.80
71764;BME280;59602;52.142;5.408;2022-09-09T03:22:38;100828.44;;;15.15;83.51
71764;BME280;59602;52.142;5.408;2022-09-09T03:25:05;100827.72;;;15.11;84.06
71764;BME280;59602;52.142;5.408;2022-09-09T03:27:33;100830.09;;;15.09;84.09
71764;BME280;59602;52.142;5.408;2022-09-09T03:30:00;100819.94;;;15.09;84.64
71764;BME280;59602;52.142;5.408;2022-09-09T03:32:29;100822.25;;;15.11;84.46
71764;BME280;59602;52.142;5.408;2022-09-09T03:34:57;100819.13;;;15.09;83.90
71764;BME280;59602;52.142;5.408;2022-09-09T03:37:24;100829.72;;;15.07;84.28
71764;BME280;59602;52.142;5.408;2022-09-09T03:39:50;100818.81;;;15.03;84.04
71764;BME280;59602;52.142;5.408;2022-09-09T03:42:17;100827.03;;;15.03;83.79
71764;BME280;59602;52.142;5.408;2022-09-09T03:44:46;100819.22;;;15.02;84.23
71764;BME280;59602;52.142;5.408;2022-09-09T03:47:17;100826.28;;;15.03;84.13
71764;BME280;59602;52.142;5.408;2022-09-09T03:49:45;100825.47;;;15.02;84.28
71764;BME280;59602;52.142;5.408;2022-09-09T03:52:12;100824.72;;;15.02;84.16
71764;BME280;59602;52.142;5.408;2022-09-09T03:54:38;100814.94;;;15.01;84.22
71764;BME280;59602;52.142;5.408;2022-09-09T03:57:05;100814.16;;;15.00;83.92
71764;BME280;59602;52.142;5.408;2022-09-09T03:59:32;100816.88;;;15.00;84.14
71764;BME280;59602;52.142;5.408;2022-09-09T04:01:59;100816.94;;;14.97;84.19
71764;BME280;59602;52.142;5.408;2022-09-09T04:04:26;100813.06;;;14.94;83.91
71764;BME280;59602;52.142;5.408;2022-09-09T04:06:53;100816.59;;;14.94;84.04
71764;BME280;59602;52.142;5.408;2022-09-09T04:09:19;100817.75;;;14.93;84.26
71764;BME280;59602;52.142;5.408;2022-09-09T04:11:46;100817.41;;;14.91;83.75
71764;BME280;59602;52.142;5.408;2022-09-09T04:14:14;100815.84;;;14.90;84.30
71764;BME280;59602;52.142;5.408;2022-09-09T04:16:40;100816.25;;;14.89;84.15
71764;BME280;59602;52.142;5.408;2022-09-09T04:19:12;100813.94;;;14.87;83.79
71764;BME280;59602;52.142;5.408;2022-09-09T04:21:41;100825.28;;;14.86;84.42
71764;BME280;59602;52.142;5.408;2022-09-09T04:24:08;100811.22;;;14.84;84.17
71764;BME280;59602;52.142;5.408;2022-09-09T04:26:36;100810.41;;;14.87;84.12
71764;BME280;59602;52.142;5.408;2022-09-09T04:29:04;100805.34;;;14.85;84.29
71764;BME280;59602;52.142;5.408;2022-09-09T04:31:31;100807.31;;;14.85;84.71
71764;BME280;59602;52.142;5.408;2022-09-09T04:33:58;100805.34;;;14.85;84.56
71764;BME280;59602;52.142;5.408;2022-09-09T04:36:24;100810.41;;;14.87;84.98
71764;BME280;59602;52.142;5.408;2022-09-09T04:38:50;100811.97;;;14.88;84.48
71764;BME280;59602;52.142;5.408;2022-09-09T04:41:17;100808.41;;;14.91;84.84
71764;BME280;59602;52.142;5.408;2022-09-09T04:43:44;100804.50;;;14.92;84.98
71764;BME280;59602;52.142;5.408;2022-09-09T04:46:10;100806.81;;;14.93;84.90
71764;BME280;59602;52.142;5.408;2022-09-09T04:48:37;100792.72;;;14.95;85.16
71764;BME280;59602;52.142;5.408;2022-09-09T04:51:05;100796.22;;;14.95;85.82
71764;BME280;59602;52.142;5.408;2022-09-09T04:53:32;100790.34;;;14.97;85.59
71764;BME280;59602;52.142;5.408;2022-09-09T04:56:08;100783.31;;;14.96;85.36
71764;BME280;59602;52.142;5.408;2022-09-09T04:58:37;100789.16;;;14.98;85.26
71764;BME280;59602;52.142;5.408;2022-09-09T05:01:06;100787.59;;;14.97;85.37
71764;BME280;59602;52.142;5.408;2022-09-09T05:03:34;100792.72;;;14.95;84.92
71764;BME280;59602;52.142;5.408;2022-09-09T05:06:11;100800.16;;;14.94;85.29
71764;BME280;59602;52.142;5.408;2022-09-09T05:08:39;100793.91;;;14.94;85.12
71764;BME280;59602;52.142;5.408;2022-09-09T05:11:14;100798.25;;;14.91;85.51
71764;BME280;59602;52.142;5.408;2022-09-09T05:13:42;100799.78;;;14.92;85.23
71764;BME280;59602;52.142;5.408;2022-09-09T05:16:09;100799.03;;;14.92;85.18
71764;BME280;59602;52.142;5.408;2022-09-09T05:18:38;100799.41;;;14.90;85.31
71764;BME280;59602;52.142;5.408;2022-09-09T05:21:06;100796.69;;;14.90;85.42
71764;BME280;59602;52.142;5.408;2022-09-09T05:23:33;100793.56;;;14.88;85.31
71764;BME280;59602;52.142;5.408;2022-09-09T05:26:01;100787.69;;;14.90;85.43
71764;BME280;59602;52.142;5.408;2022-09-09T05:28:28;100787.31;;;14.91;85.23
71764;BME280;59602;52.142;5.408;2022-09-09T05:30:56;100778.25;;;14.94;85.63
71764;BME280;59602;52.142;5.408;2022-09-09T05:33:24;100775.50;;;14.94;85.49
71764;BME280;59602;52.142;5.408;2022-09-09T05:35:58;100775.50;;;14.94;85.59
71764;BME280;59602;52.142;5.408;2022-09-09T05:38:25;100783.72;;;14.94;85.56
71764;BME280;59602;52.142;5.408;2022-09-09T05:40:54;100778.25;;;14.94;85.61
71764;BME280;59602;52.142;5.408;2022-09-09T05:43:23;100787.25;;;14.95;85.60
71764;BME280;59602;52.142;5.408;2022-09-09T05:46:09;100787.25;;;14.95;85.28
71764;BME280;59602;52.142;5.408;2022-09-09T05:48:38;100784.91;;;14.93;85.91
71764;BME280;59602;52.142;5.408;2022-09-09T05:51:07;100789.22;;;14.94;86.07
71764;BME280;59602;52.142;5.408;2022-09-09T05:53:35;100776.28;;;14.95;85.59
71764;BME280;59602;52.142;5.408;2022-09-09T05:56:06;100778.63;;;14.97;85.76
71764;BME280;59602;52.142;5.408;2022-09-09T05:58:34;100777.03;;;14.99;85.61
71764;BME280;59602;52.142;5.408;2022-09-09T06:01:05;100783.25;;;15.00;86.12
71764;BME280;59602;52.142;5.408;2022-09-09T06:03:35;100798.47;;;15.04;86.26
71764;BME280;59602;52.142;5.408;2022-09-09T06:06:05;100803.53;;;15.06;86.28
71764;BME280;59602;52.142;5.408;2022-09-09T06:08:35;100796.06;;;15.10;86.10
71764;BME280;59602;52.142;5.408;2022-09-09T06:11:06;100798.03;;;15.09;86.35
71764;BME280;59602;52.142;5.408;2022-09-09T06:13:33;100801.53;;;15.10;86.48
71764;BME280;59602;52.142;5.408;2022-09-09T06:15:59;100791.69;;;15.16;86.39
71764;BME280;59602;52.142;5.408;2022-09-09T06:18:26;100799.34;;;15.25;86.34
71764;BME280;59602;52.142;5.408;2022-09-09T06:20:58;100793.81;;;15.32;86.58
71764;BME280;59602;52.142;5.408;2022-09-09T06:23:25;100791.06;;;15.32;86.34
71764;BME280;59602;52.142;5.408;2022-09-09T06:26:02;100789.06;;;15.36;86.70
71764;BME280;59602;52.142;5.408;2022-09-09T06:28:29;100788.22;;;15.39;86.60
71764;BME280;59602;52.142;5.408;2022-09-09T06:31:00;100790.56;;;15.41;86.63
71764;BME280;59602;52.142;5.408;2022-09-09T06:33:31;100776.78;;;15.44;86.94
71764;BME280;59602;52.142;5.408;2022-09-09T06:35:58;100781.84;;;15.46;86.82
71764;BME280;59602;52.142;5.408;2022-09-09T06:38:24;100778.22;;;15.52;86.86
71764;BME280;59602;52.142;5.408;2022-09-09T06:40:53;100775.34;;;15.63;87.05
71764;BME280;59602;52.142;5.408;2022-09-09T06:43:22;100779.06;;;15.76;87.34
71764;BME280;59602;52.142;5.408;2022-09-09T06:45:55;100776.84;;;15.91;87.15
71764;BME280;59602;52.142;5.408;2022-09-09T06:48:22;100782.91;;;16.03;86.89
71764;BME280;59602;52.142;5.408;2022-09-09T06:50:49;100788.00;;;16.04;86.82
71764;BME280;59602;52.142;5.408;2022-09-09T06:53:17;100779.41;;;16.02;86.75
71764;BME280;59602;52.142;5.408;2022-09-09T06:55:45;100778.66;;;16.02;86.78
71764;BME280;59602;52.142;5.408;2022-09-09T06:58:12;100785.25;;;16.04;86.65
71764;BME280;59602;52.142;5.408;2022-09-09T07:00:38;100777.75;;;16.08;87.06
71764;BME280;59602;52.142;5.408;2022-09-09T07:03:05;100782.09;;;16.06;87.17
71764;BME280;59602;52.142;5.408;2022-09-09T07:05:32;100787.16;;;16.07;86.87
71764;BME280;59602;52.142;5.408;2022-09-09T07:07:59;100784.34;;;16.11;86.98
71764;BME280;59602;52.142;5.408;2022-09-09T07:10:25;100784.66;;;16.16;86.88
71764;BME280;59602;52.142;5.408;2022-09-09T07:12:52;100784.53;;;16.24;86.31
71764;BME280;59602;52.142;5.408;2022-09-09T07:15:19;100785.16;;;16.31;86.27
71764;BME280;59602;52.142;5.408;2022-09-09T07:17:45;100787.09;;;16.34;86.55
71764;BME280;59602;52.142;5.408;2022-09-09T07:20:13;100786.22;;;16.37;86.25
71764;BME280;59602;52.142;5.408;2022-09-09T07:22:41;100785.09;;;16.35;86.23
71764;BME280;59602;52.142;5.408;2022-09-09T07:25:07;100794.53;;;16.34;86.74
71764;BME280;59602;52.142;5.408;2022-09-09T07:27:34;100777.66;;;16.35;86.57
71764;BME280;59602;52.142;5.408;2022-09-09T07:30:01;100789.75;;;16.38;86.57
71764;BME280;59602;52.142;5.408;2022-09-09T07:32:28;100797.16;;;16.41;86.69
71764;BME280;59602;52.142;5.408;2022-09-09T07:34:58;100795.19;;;16.42;86.59
71764;BME280;59602;52.142;5.408;2022-09-09T07:37:24;100796.34;;;16.40;86.77
71764;BME280;59602;52.142;5.408;2022-09-09T07:39:51;100794.41;;;16.41;86.27
71764;BME280;59602;52.142;5.408;2022-09-09T07:42:17;100790.66;;;16.51;86.00
71764;BME280;59602;52.142;5.408;2022-09-09T07:44:44;100795.91;;;16.66;85.77
71764;BME280;59602;52.142;5.408;2022-09-09T07:47:11;100787.69;;;16.86;85.53
71764;BME280;59602;52.142;5.408;2022-09-09T07:49:38;100791.25;;;17.02;84.72
71764;BME280;59602;52.142;5.408;2022-09-09T07:52:10;100782.06;;;17.09;84.76
71764;BME280;59602;52.142;5.408;2022-09-09T07:54:44;100789.38;;;17.16;84.58
71764;BME280;59602;52.142;5.408;2022-09-09T07:57:14;100787.34;;;17.20;84.15
71764;BME280;59602;52.142;5.408;2022-09-09T08:03:35;100784.53;;;17.24;83.37
71764;BME280;59602;52.142;5.408;2022-09-09T08:06:30;100787.28;;;17.24;83.19
71764;BME280;59602;52.142;5.408;2022-09-09T08:08:57;100797.47;;;17.23;83.60
71764;BME280;59602;52.142;5.408;2022-09-09T08:11:44;100793.94;;;17.22;84.10
71764;BME280;59602;52.142;5.408;2022-09-09T08:14:32;100797.56;;;17.19;83.24
71764;BME280;59602;52.142;5.408;2022-09-09T08:16:59;100796.00;;;17.18;83.54
71764;BME280;59602;52.142;5.408;2022-09-09T08:19:26;100794.53;;;17.14;84.06
71764;BME280;59602;52.142;5.408;2022-09-09T08:21:55;100799.69;;;17.12;83.67
71764;BME280;59602;52.142;5.408;2022-09-09T08:24:28;100797.38;;;17.10;83.40
71764;BME280;59602;52.142;5.408;2022-09-09T08:26:55;100809.56;;;17.09;82.88
71764;BME280;59602;52.142;5.408;2022-09-09T08:29:23;100801.72;;;17.08;82.99
71764;BME280;59602;52.142;5.408;2022-09-09T08:31:55;100809.28;;;17.04;82.52
71764;BME280;59602;52.142;5.408;2022-09-09T08:34:24;100806.97;;;17.02;81.66
71764;BME280;59602;52.142;5.408;2022-09-09T08:36:52;100808.94;;;17.01;81.96
71764;BME280;59602;52.142;5.408;2022-09-09T08:39:21;100815.19;;;17.02;82.54
71764;BME280;59602;52.142;5.408;2022-09-09T08:41:52;100818.00;;;16.98;83.43
71764;BME280;59602;52.142;5.408;2022-09-09T08:44:50;100813.63;;;17.01;83.51
71764;BME280;59602;52.142;5.408;2022-09-09T08:50:22;100820.53;;;17.09;82.57
71764;BME280;59602;52.142;5.408;2022-09-09T08:53:01;100815.75;;;17.13;82.24
71764;BME280;59602;52.142;5.408;2022-09-09T08:55:50;100821.19;;;17.17;82.50
71764;BME280;59602;52.142;5.408;2022-09-09T08:58:49;100823.00;;;17.24;81.97
71764;BME280;59602;52.142;5.408;2022-09-09T09:04:02;100822.38;;;17.32;81.37
71764;BME280;59602;52.142;5.408;2022-09-09T09:06:55;100824.78;;;17.30;81.50
71764;BME280;59602;52.142;5.408;2022-09-09T09:09:33;100830.63;;;17.32;81.55
71764;BME280;59602;52.142;5.408;2022-09-09T09:12:13;100823.09;;;17.36;81.34
71764;BME280;59602;52.142;5.408;2022-09-09T09:14:43;100831.34;;;17.36;80.30
71764;BME280;59602;52.142;5.408;2022-09-09T09:17:17;100826.28;;;17.35;80.27
71764;BME280;59602;52.142;5.408;2022-09-09T09:19:48;100832.19;;;17.33;80.89
71764;BME280;59602;52.142;5.408;2022-09-09T09:22:41;100836.94;;;17.33;80.51
71764;BME280;59602;52.142;5.408;2022-09-09T09:27:58;100830.72;;;17.29;81.63
71764;BME280;59602;52.142;5.408;2022-09-09T09:30:38;100837.41;;;17.28;80.89
71764;BME280;59602;52.142;5.408;2022-09-09T09:33:11;100840.94;;;17.28;81.52
71764;BME280;59602;52.142;5.408;2022-09-09T09:35:41;100832.25;;;17.30;80.14
71764;BME280;59602;52.142;5.408;2022-09-09T09:38:16;100830.63;;;17.32;80.35
71764;BME280;59602;52.142;5.408;2022-09-09T09:41:03;100833.84;;;17.31;80.62
71764;BME280;59602;52.142;5.408;2022-09-09T09:43:35;100832.19;;;17.33;80.95
71764;BME280;59602;52.142;5.408;2022-09-09T09:46:04;100837.28;;;17.35;81.00
71764;BME280;59602;52.142;5.408;2022-09-09T09:48:43;100831.34;;;17.36;80.52
71764;BME280;59602;52.142;5.408;2022-09-09T09:51:14;100827.41;;;17.37;79.97
71764;BME280;59602;52.142;5.408;2022-09-09T09:53:44;100834.00;;;17.40;79.72
71764;BME280;59602;52.142;5.408;2022-09-09T09:56:13;100835.19;;;17.39;79.97
71764;BME280;59602;52.142;5.408;2022-09-09T10:01:28;100832.81;;;17.41;80.13
71764;BME280;59602;52.142;5.408;2022-09-09T10:03:59;100833.16;;;17.43;80.26
71764;BME280;59602;52.142;5.408;2022-09-09T10:06:34;100830.41;;;17.43;80.57
71764;BME280;59602;52.142;5.408;2022-09-09T10:09:03;100825.25;;;17.45;80.71
71764;BME280;59602;52.142;5.408;2022-09-09T10:11:43;100831.44;;;17.49;80.97
71764;BME280;59602;52.142;5.408;2022-09-09T10:14:21;100836.88;;;17.53;80.63
71764;BME280;59602;52.142;5.408;2022-09-09T10:17:09;100829.06;;;17.51;79.70
71764;BME280;59602;52.142;5.408;2022-09-09T10:19:42;100825.09;;;17.52;79.41
71764;BME280;59602;52.142;5.408;2022-09-09T10:22:19;100822.00;;;17.50;79.72
71764;BME280;59602;52.142;5.408;2022-09-09T10:28:04;100836.44;;;17.54;79.59
71764;BME280;59602;52.142;5.408;2022-09-09T10:31:07;100828.19;;;17.54;80.33
71764;BME280;59602;52.142;5.408;2022-09-09T10:33:51;100845.81;;;17.57;79.94
71764;BME280;59602;52.142;5.408;2022-09-09T10:36:24;100850.13;;;17.58;80.53
71764;BME280;59602;52.142;5.408;2022-09-09T10:51:22;100836.63;;;17.63;80.03
71764;BME280;59602;52.142;5.408;2022-09-09T10:57:37;100844.63;;;17.58;81.56
71764;BME280;59602;52.142;5.408;2022-09-09T11:00:38;100835.50;;;17.61;81.96
71764;BME280;59602;52.142;5.408;2022-09-09T11:03:19;100837.47;;;17.60;82.57
71764;BME280;59602;52.142;5.408;2022-09-09T11:20:35;100819.28;;;18.16;81.32
71764;BME280;59602;52.142;5.408;2022-09-09T11:23:44;100814.97;;;18.15;81.61
71764;BME280;59602;52.142;5.408;2022-09-09T11:29:32;100811.88;;;18.13;81.68
71764;BME280;59602;52.142;5.408;2022-09-09T11:33:23;100815.69;;;18.02;81.28
71764;BME280;59602;52.142;5.408;2022-09-09T11:44:46;100803.81;;;18.05;79.96
71764;BME280;59602;52.142;5.408;2022-09-09T11:51:38;100801.34;;;18.24;80.02
71764;BME280;59602;52.142;5.408;2022-09-09T12:17:29;100805.13;;;18.30;80.55
71764;BME280;59602;52.142;5.408;2022-09-09T12:20:23;100814.69;;;18.25;81.45
71764;BME280;59602;52.142;5.408;2022-09-09T12:27:28;100811.81;;;18.00;81.48
71764;BME280;59602;52.142;5.408;2022-09-09T12:33:17;100818.28;;;17.93;82.06
71764;BME280;59602;52.142;5.408;2022-09-09T12:36:34;100806.22;;;18.03;82.18
71764;BME280;59602;52.142;5.408;2022-09-09T12:39:20;100809.31;;;18.05;82.58
71764;BME280;59602;52.142;5.408;2022-09-09T12:42:39;100812.22;;;18.15;82.75
71764;BME280;59602;52.142;5.408;2022-09-09T12:45:25;100808.50;;;18.21;82.98
71764;BME280;59602;52.142;5.408;2022-09-09T12:48:18;100803.16;;;18.31;83.30
71764;BME280;59602;52.142;5.408;2022-09-09T12:59:02;100792.06;;;18.34;81.94
71764;BME280;59602;52.142;5.408;2022-09-09T13:07:23;100794.72;;;18.38;81.10
71764;BME280;59602;52.142;5.408;2022-09-09T13:13:59;100796.31;;;18.52;80.53
71764;BME280;59602;52.142;5.408;2022-09-09T13:19:52;100801.75;;;18.68;80.45
71764;BME280;59602;52.142;5.408;2022-09-09T13:22:54;100796.59;;;18.70;79.31
71764;BME280;59602;52.142;5.408;2022-09-09T13:26:34;100793.50;;;18.68;78.70
71764;BME280;59602;52.142;5.408;2022-09-09T13:29:24;100796.25;;;18.68;79.18
71764;BME280;59602;52.142;5.408;2022-09-09T13:32:19;100793.16;;;18.66;77.79
71764;BME280;59602;52.142;5.408;2022-09-09T13:34:59;100797.22;;;18.61;79.26
71764;BME280;59602;52.142;5.408;2022-09-09T13:38:09;100798.88;;;18.59;79.67
71764;BME280;59602;52.142;5.408;2022-09-09T13:41:18;100794.91;;;18.60;79.26
71764;BME280;59602;52.142;5.408;2022-09-09T13:47:03;100788.97;;;18.61;79.15
71764;BME280;59602;52.142;5.408;2022-09-09T13:49:36;100793.78;;;18.57;79.75
71764;BME280;59602;52.142;5.408;2022-09-09T13:52:10;100789.41;;;18.60;79.97
71764;BME280;59602;52.142;5.408;2022-09-09T13:54:40;100790.94;;;18.61;78.92
71764;BME280;59602;52.142;5.408;2022-09-09T13:57:26;100787.84;;;18.59;78.06
71764;BME280;59602;52.142;5.408;2022-09-09T14:00:40;100789.72;;;18.62;78.75
71764;BME280;59602;52.142;5.408;2022-09-09T14:11:35;100794.13;;;18.59;79.15
71764;BME280;59602;52.142;5.408;2022-09-09T14:14:14;100796.03;;;18.62;78.35
71764;BME280;59602;52.142;5.408;2022-09-09T14:17:13;100784.22;;;18.62;79.25
71764;BME280;59602;52.142;5.408;2022-09-09T14:19:44;100797.13;;;18.65;78.07
71764;BME280;59602;52.142;5.408;2022-09-09T14:22:56;100791.63;;;18.65;79.15
71764;BME280;59602;52.142;5.408;2022-09-09T14:25:59;100782.94;;;18.66;78.59
71764;BME280;59602;52.142;5.408;2022-09-09T14:31:57;100786.44;;;18.67;79.82
71764;BME280;59602;52.142;5.408;2022-09-09T14:35:07;100783.56;;;18.71;78.87
71764;BME280;59602;52.142;5.408;2022-09-09T14:41:31;100785.09;;;18.59;81.65
71764;BME280;59602;52.142;5.408;2022-09-09T14:44:01;100789.84;;;18.58;81.53
71764;BME280;59602;52.142;5.408;2022-09-09T14:46:42;100782.88;;;18.54;81.98
71764;BME280;59602;52.142;5.408;2022-09-09T14:49:09;100788.13;;;18.48;83.29
71764;BME280;59602;52.142;5.408;2022-09-09T14:51:38;100784.72;;;18.44;82.40
71764;BME280;59602;52.142;5.408;2022-09-09T14:54:05;100779.53;;;18.46;81.67
71764;BME280;59602;52.142;5.408;2022-09-09T14:56:34;100777.75;;;18.39;83.16
71764;BME280;59602;52.142;5.408;2022-09-09T14:59:01;100758.34;;;18.30;84.00
71764;BME280;59602;52.142;5.408;2022-09-09T15:01:29;100781.13;;;18.31;84.12
71764;BME280;59602;52.142;5.408;2022-09-09T15:04:51;100775.53;;;18.34;83.48
71764;BME280;59602;52.142;5.408;2022-09-09T15:07:50;100777.75;;;18.39;84.14
71764;BME280;59602;52.142;5.408;2022-09-09T15:10:19;100774.81;;;18.46;84.88
71764;BME280;59602;52.142;5.408;2022-09-09T15:12:48;100775.72;;;18.56;84.81
71764;BME280;59602;52.142;5.408;2022-09-09T15:15:16;100781.47;;;18.62;84.79
71764;BME280;59602;52.142;5.408;2022-09-09T15:17:43;100784.34;;;18.58;84.47
71764;BME280;59602;52.142;5.408;2022-09-09T15:20:10;100794.91;;;18.60;84.90
71764;BME280;59602;52.142;5.408;2022-09-09T15:22:36;100798.09;;;18.58;84.34
71764;BME280;59602;52.142;5.408;2022-09-09T15:25:04;100793.28;;;18.62;84.45
71764;BME280;59602;52.142;5.408;2022-09-09T15:27:31;100797.69;;;18.60;84.71
71764;BME280;59602;52.142;5.408;2022-09-09T15:29:58;100810.66;;;18.59;83.40
71764;BME280;59602;52.142;5.408;2022-09-09T15:32:24;100808.69;;;18.60;83.47
71764;BME280;59602;52.142;5.408;2022-09-09T15:34:51;100810.66;;;18.59;82.57
71764;BME280;59602;52.142;5.408;2022-09-09T15:37:20;100814.72;;;18.55;83.76
71764;BME280;59602;52.142;5.408;2022-09-09T15:39:47;100813.25;;;18.50;84.61
71764;BME280;59602;52.142;5.408;2022-09-09T15:42:15;100820.34;;;18.51;85.05
71764;BME280;59602;52.142;5.408;2022-09-09T15:44:41;100812.16;;;18.48;83.59
71764;BME280;59602;52.142;5.408;2022-09-09T15:47:11;100808.38;;;18.41;82.60
71764;BME280;59602;52.142;5.408;2022-09-09T15:49:38;100812.00;;;18.38;83.30
71764;BME280;59602;52.142;5.408;2022-09-09T15:52:11;100806.50;;;18.38;83.42
71764;BME280;59602;52.142;5.408;2022-09-09T15:54:38;100814.09;;;18.34;84.06
71764;BME280;59602;52.142;5.408;2022-09-09T15:57:07;100812.97;;;18.32;84.32
71764;BME280;59602;52.142;5.408;2022-09-09T15:59:34;100809.78;;;18.33;84.03
71764;BME280;59602;52.142;5.408;2022-09-09T16:02:01;100806.34;;;18.29;81.46
71764;BME280;59602;52.142;5.408;2022-09-09T16:04:28;100807.56;;;18.28;83.70
71764;BME280;59602;52.142;5.408;2022-09-09T16:06:58;100806.25;;;18.33;83.41